sensor_id;sensor_type;location;lat;lon;timestamp;temperature;humidity
10702;DHT22;5402;50.004;8.246;2023-05-16T00:01:49;13.70;99.90
10702;DHT22;5402;50.004;8.246;2023-05-16T00:04:15;13.50;99.90
10702;DHT22;5402;50.004;8.246;2023-05-16T00:06:42;13.60;99.90
10702;DHT22;5402;50.004;8.246;2023-05-16T00:09:09;13.50;99.90
10702;DHT22;5402;50.004;8.246;2023-05-16T00:11:37;13.50;99.90
10702;DHT22;5402;50.004;8.246;2023-05-16T00:14:04;13.50;99.90
10702;DHT22;5402;50.004;8.246;2023-05-16T00:16:32;13.50;99.90
10702;DHT22;5402;50.004;8.246;2023-05-16T00:19:01;13.50;99.90
10702;DHT22;5402;50.004;8.246;2023-05-16T00:21:28;13.50;99.90
10702;DHT22;5402;50.004;8.246;2023-05-16T00:23:55;13.50;99.90
10702;DHT22;5402;50.004;8.246;2023-05-16T00:26:22;13.50;99.90
10702;DHT22;5402;50.004;8.246;2023-05-16T00:28:50;13.50;99.90
10702;DHT22;5402;50.004;8.246;2023-05-16T00:31:17;13.50;99.90
10702;DHT22;5402;50.004;8.246;2023-05-16T00:33:44;13.50;99.90
10702;DHT22;5402;50.004;8.246;2023-05-16T00:36:10;13.50;99.90
10702;DHT22;5402;50.004;8.246;2023-05-16T00:38:37;13.50;99.90
10702;DHT22;5402;50.004;8.246;2023-05-16T00:41:04;13.50;99.90
10702;DHT22;5402;50.004;8.246;2023-05-16T00:43:30;13.50;99.90
10702;DHT22;5402;50.004;8.246;2023-05-16T00:45:58;13.50;99.90
10702;DHT22;5402;50.004;8.246;2023-05-16T00:48:25;13.40;99.90
10702;DHT22;5402;50.004;8.246;2023-05-16T00:50:52;13.40;99.90
10702;DHT22;5402;50.004;8.246;2023-05-16T00:53:19;13.50;99.90
10702;DHT22;5402;50.004;8.246;2023-05-16T00:55:46;13.40;99.90
10702;DHT22;5402;50.004;8.246;2023-05-16T00:58:13;13.30;99.90
10702;DHT22;5402;50.004;8.246;2023-05-16T01:00:40;13.30;99.90
10702;DHT22;5402;50.004;8.246;2023-05-16T01:03:08;13.30;99.90
10702;DHT22;5402;50.004;8.246;2023-05-16T01:05:35;13.30;99.90
10702;DHT22;5402;50.004;8.246;2023-05-16T01:08:02;13.30;99.90
10702;DHT22;5402;50.004;8.246;2023-05-16T01:10:35;13.30;99.90
10702;DHT22;5402;50.004;8.246;2023-05-16T01:13:10;13.30;99.90
10702;DHT22;5402;50.004;8.246;2023-05-16T01:15:43;13.30;99.90
10702;DHT22;5402;50.004;8.246;2023-05-16T01:18:17;13.30;99.90
10702;DHT22;5402;50.004;8.246;2023-05-16T01:20:52;13.30;99.90
10702;DHT22;5402;50.004;8.246;2023-05-16T01:23:39;13.30;99.90
10702;DHT22;5402;50.004;8.246;2023-05-16T01:26:17;13.20;99.90
10702;DHT22;5402;50.004;8.246;2023-05-16T01:28:46;13.20;99.90
10702;DHT22;5402;50.004;8.246;2023-05-16T01:31:13;13.10;99.90
10702;DHT22;5402;50.004;8.246;2023-05-16T01:33:40;13.10;99.90
10702;DHT22;5402;50.004;8.246;2023-05-16T01:36:12;13.10;99.90
10702;DHT22;5402;50.004;8.246;2023-05-16T01:38:43;13.00;99.90
10702;DHT22;5402;50.004;8.246;2023-05-16T01:41:17;13.00;99.90
10702;DHT22;5402;50.004;8.246;2023-05-16T01:43:51;12.90;99.90
10702;DHT22;5402;50.004;8.246;2023-05-16T01:46:22;12.90;99.90
10702;DHT22;5402;50.004;8.246;2023-05-16T01:48:52;12.90;99.90
10702;DHT22;5402;50.004;8.246;2023-05-16T01:51:21;12.80;99.90
10702;DHT22;5402;50.004;8.246;2023-05-16T01:53:51;12.80;99.90
10702;DHT22;5402;50.004;8.246;2023-05-16T01:56:21;12.80;99.90
10702;DHT22;5402;50.004;8.246;2023-05-16T01:58:49;12.70;99.90
10702;DHT22;5402;50.004;8.246;2023-05-16T02:01:16;12.70;99.90
10702;DHT22;5402;50.004;8.246;2023-05-16T02:03:43;12.60;99.90
10702;DHT22;5402;50.004;8.246;2023-05-16T02:06:10;12.60;99.90
10702;DHT22;5402;50.004;8.246;2023-05-16T02:08:36;12.70;99.90
10702;DHT22;5402;50.004;8.246;2023-05-16T02:11:03;12.60;99.90
10702;DHT22;5402;50.004;8.246;2023-05-16T02:13:31;12.60;99.90
10702;DHT22;5402;50.004;8.246;2023-05-16T02:15:58;12.50;99.90
10702;DHT22;5402;50.004;8.246;2023-05-16T02:18:25;12.50;99.90
10702;DHT22;5402;50.004;8.246;2023-05-16T02:20:52;12.40;99.90
10702;DHT22;5402;50.004;8.246;2023-05-16T02:23:19;12.40;99.90
10702;DHT22;5402;50.004;8.246;2023-05-16T02:25:46;12.30;99.90
10702;DHT22;5402;50.004;8.246;2023-05-16T02:28:13;12.30;99.90
10702;DHT22;5402;50.004;8.246;2023-05-16T02:30:41;12.30;99.90
10702;DHT22;5402;50.004;8.246;2023-05-16T02:33:07;12.30;99.90
10702;DHT22;5402;50.004;8.246;2023-05-16T02:35:34;12.30;99.90
10702;DHT22;5402;50.004;8.246;2023-05-16T02:38:01;12.50;99.90
10702;DHT22;5402;50.004;8.246;2023-05-16T02:40:27;12.30;99.90
10702;DHT22;5402;50.004;8.246;2023-05-16T02:42:54;12.30;99.90
10702;DHT22;5402;50.004;8.246;2023-05-16T02:45:21;12.30;99.90
10702;DHT22;5402;50.004;8.246;2023-05-16T02:47:49;12.40;99.90
10702;DHT22;5402;50.004;8.246;2023-05-16T02:50:15;12.30;99.90
10702;DHT22;5402;50.004;8.246;2023-05-16T02:52:42;12.30;99.90
10702;DHT22;5402;50.004;8.246;2023-05-16T02:55:09;12.30;99.90
10702;DHT22;5402;50.004;8.246;2023-05-16T02:57:37;12.40;99.90
10702;DHT22;5402;50.004;8.246;2023-05-16T03:00:05;12.40;99.90
10702;DHT22;5402;50.004;8.246;2023-05-16T03:02:32;12.30;99.90
10702;DHT22;5402;50.004;8.246;2023-05-16T03:05:00;12.40;99.90
10702;DHT22;5402;50.004;8.246;2023-05-16T03:07:27;12.40;99.90
10702;DHT22;5402;50.004;8.246;2023-05-16T03:09:54;12.30;99.90
10702;DHT22;5402;50.004;8.246;2023-05-16T03:12:20;12.30;99.90
10702;DHT22;5402;50.004;8.246;2023-05-16T03:14:47;12.30;99.90
10702;DHT22;5402;50.004;8.246;2023-05-16T03:17:14;12.30;99.90
10702;DHT22;5402;50.004;8.246;2023-05-16T03:19:40;12.30;99.90
10702;DHT22;5402;50.004;8.246;2023-05-16T03:22:08;12.30;99.90
10702;DHT22;5402;50.004;8.246;2023-05-16T03:24:35;12.20;99.90
10702;DHT22;5402;50.004;8.246;2023-05-16T03:27:02;12.20;99.90
10702;DHT22;5402;50.004;8.246;2023-05-16T03:29:29;12.20;99.90
10702;DHT22;5402;50.004;8.246;2023-05-16T03:31:56;12.20;99.90
10702;DHT22;5402;50.004;8.246;2023-05-16T03:34:23;12.20;99.90
10702;DHT22;5402;50.004;8.246;2023-05-16T03:36:50;12.20;99.90
10702;DHT22;5402;50.004;8.246;2023-05-16T03:39:18;12.30;99.90
10702;DHT22;5402;50.004;8.246;2023-05-16T03:41:44;12.20;99.90
10702;DHT22;5402;50.004;8.246;2023-05-16T03:44:11;12.30;99.90
10702;DHT22;5402;50.004;8.246;2023-05-16T03:46:38;12.30;99.90
10702;DHT22;5402;50.004;8.246;2023-05-16T03:49:05;12.30;99.90
10702;DHT22;5402;50.004;8.246;2023-05-16T03:51:31;12.30;99.90
10702;DHT22;5402;50.004;8.246;2023-05-16T03:53:58;12.30;99.90
10702;DHT22;5402;50.004;8.246;2023-05-16T03:56:26;12.20;99.90
10702;DHT22;5402;50.004;8.246;2023-05-16T03:58:53;12.20;99.90
10702;DHT22;5402;50.004;8.246;2023-05-16T04:01:20;12.20;99.90
10702;DHT22;5402;50.004;8.246;2023-05-16T04:03:46;12.20;99.90
10702;DHT22;5402;50.004;8.246;2023-05-16T04:06:15;12.30;99.90
10702;DHT22;5402;50.004;8.246;2023-05-16T04:08:41;12.30;99.90
10702;DHT22;5402;50.004;8.246;2023-05-16T04:11:09;12.30;99.90
10702;DHT22;5402;50.004;8.246;2023-05-16T04:13:37;12.30;99.90
10702;DHT22;5402;50.004;8.246;2023-05-16T04:16:04;12.30;99.90
10702;DHT22;5402;50.004;8.246;2023-05-16T04:18:31;12.40;99.90
10702;DHT22;5402;50.004;8.246;2023-05-16T04:20:58;12.40;99.90
10702;DHT22;5402;50.004;8.246;2023-05-16T04:23:24;12.30;99.90
10702;DHT22;5402;50.004;8.246;2023-05-16T04:25:51;12.30;99.90
10702;DHT22;5402;50.004;8.246;2023-05-16T04:28:18;12.30;99.90
10702;DHT22;5402;50.004;8.246;2023-05-16T04:30:46;12.30;99.90
10702;DHT22;5402;50.004;8.246;2023-05-16T04:33:13;12.40;99.90
10702;DHT22;5402;50.004;8.246;2023-05-16T04:35:41;12.30;99.90
10702;DHT22;5402;50.004;8.246;2023-05-16T04:38:07;12.30;99.90
10702;DHT22;5402;50.004;8.246;2023-05-16T04:40:34;12.40;99.90
10702;DHT22;5402;50.004;8.246;2023-05-16T04:43:01;12.40;99.90
10702;DHT22;5402;50.004;8.246;2023-05-16T04:45:27;12.40;99.90
10702;DHT22;5402;50.004;8.246;2023-05-16T04:47:55;12.40;99.90
10702;DHT22;5402;50.004;8.246;2023-05-16T04:50:22;12.50;99.90
10702;DHT22;5402;50.004;8.246;2023-05-16T04:52:49;12.50;99.90
10702;DHT22;5402;50.004;8.246;2023-05-16T04:55:15;12.40;99.90
10702;DHT22;5402;50.004;8.246;2023-05-16T04:57:42;12.40;99.90
10702;DHT22;5402;50.004;8.246;2023-05-16T05:00:10;12.40;99.90
10702;DHT22;5402;50.004;8.246;2023-05-16T05:02:38;12.40;99.90
10702;DHT22;5402;50.004;8.246;2023-05-16T05:05:07;12.40;99.90
10702;DHT22;5402;50.004;8.246;2023-05-16T05:07:34;12.50;99.90
10702;DHT22;5402;50.004;8.246;2023-05-16T05:10:01;12.50;99.90
10702;DHT22;5402;50.004;8.246;2023-05-16T05:12:28;12.60;99.90
10702;DHT22;5402;50.004;8.246;2023-05-16T05:14:55;12.70;99.90
10702;DHT22;5402;50.004;8.246;2023-05-16T05:17:22;12.60;99.90
10702;DHT22;5402;50.004;8.246;2023-05-16T05:19:48;12.70;99.90
10702;DHT22;5402;50.004;8.246;2023-05-16T05:22:16;12.50;99.90
10702;DHT22;5402;50.004;8.246;2023-05-16T05:24:43;12.60;99.90
10702;DHT22;5402;50.004;8.246;2023-05-16T05:27:10;12.60;99.90
10702;DHT22;5402;50.004;8.246;2023-05-16T05:29:37;12.80;99.90
10702;DHT22;5402;50.004;8.246;2023-05-16T05:32:04;12.80;99.90
10702;DHT22;5402;50.004;8.246;2023-05-16T05:34:31;12.90;99.90
10702;DHT22;5402;50.004;8.246;2023-05-16T05:36:57;13.00;99.90
10702;DHT22;5402;50.004;8.246;2023-05-16T05:39:26;13.00;99.90
10702;DHT22;5402;50.004;8.246;2023-05-16T05:41:52;13.10;99.90
10702;DHT22;5402;50.004;8.246;2023-05-16T05:44:19;13.00;99.90
10702;DHT22;5402;50.004;8.246;2023-05-16T05:46:46;12.90;99.90
10702;DHT22;5402;50.004;8.246;2023-05-16T05:49:13;12.60;99.90
10702;DHT22;5402;50.004;8.246;2023-05-16T05:51:40;12.60;99.90
10702;DHT22;5402;50.004;8.246;2023-05-16T05:54:07;12.60;99.90
10702;DHT22;5402;50.004;8.246;2023-05-16T05:56:35;12.40;99.90
10702;DHT22;5402;50.004;8.246;2023-05-16T05:59:02;12.40;99.90
10702;DHT22;5402;50.004;8.246;2023-05-16T06:01:29;12.50;99.90
10702;DHT22;5402;50.004;8.246;2023-05-16T06:03:55;12.30;99.90
10702;DHT22;5402;50.004;8.246;2023-05-16T06:06:22;12.30;99.90
10702;DHT22;5402;50.004;8.246;2023-05-16T06:08:49;12.30;99.90
10702;DHT22;5402;50.004;8.246;2023-05-16T06:11:15;12.40;99.90
10702;DHT22;5402;50.004;8.246;2023-05-16T06:13:43;12.30;99.90
10702;DHT22;5402;50.004;8.246;2023-05-16T06:16:10;12.20;99.90
10702;DHT22;5402;50.004;8.246;2023-05-16T06:18:37;12.20;99.90
10702;DHT22;5402;50.004;8.246;2023-05-16T06:21:04;12.10;99.90
10702;DHT22;5402;50.004;8.246;2023-05-16T06:23:32;12.10;99.90
10702;DHT22;5402;50.004;8.246;2023-05-16T06:25:59;12.10;99.90
10702;DHT22;5402;50.004;8.246;2023-05-16T06:28:25;12.40;99.90
10702;DHT22;5402;50.004;8.246;2023-05-16T06:30:53;12.20;99.90
10702;DHT22;5402;50.004;8.246;2023-05-16T06:33:20;12.20;99.90
10702;DHT22;5402;50.004;8.246;2023-05-16T06:35:47;12.20;99.90
10702;DHT22;5402;50.004;8.246;2023-05-16T06:38:14;12.20;99.90
10702;DHT22;5402;50.004;8.246;2023-05-16T06:40:40;12.20;99.90
10702;DHT22;5402;50.004;8.246;2023-05-16T06:43:07;12.20;99.90
10702;DHT22;5402;50.004;8.246;2023-05-16T06:45:34;12.10;99.90
10702;DHT22;5402;50.004;8.246;2023-05-16T06:48:02;12.10;99.90
10702;DHT22;5402;50.004;8.246;2023-05-16T06:50:29;12.10;99.90
10702;DHT22;5402;50.004;8.246;2023-05-16T06:52:56;12.00;99.90
10702;DHT22;5402;50.004;8.246;2023-05-16T06:55:23;12.10;99.90
10702;DHT22;5402;50.004;8.246;2023-05-16T06:57:50;12.00;99.90
10702;DHT22;5402;50.004;8.246;2023-05-16T07:00:17;11.90;99.90
10702;DHT22;5402;50.004;8.246;2023-05-16T07:02:44;12.00;99.90
10702;DHT22;5402;50.004;8.246;2023-05-16T07:05:12;12.20;99.90
10702;DHT22;5402;50.004;8.246;2023-05-16T07:07:39;12.20;99.90
10702;DHT22;5402;50.004;8.246;2023-05-16T07:10:06;12.20;99.90
10702;DHT22;5402;50.004;8.246;2023-05-16T07:12:34;12.00;99.90
10702;DHT22;5402;50.004;8.246;2023-05-16T07:15:02;12.10;99.90
10702;DHT22;5402;50.004;8.246;2023-05-16T07:17:28;12.10;99.90
10702;DHT22;5402;50.004;8.246;2023-05-16T07:19:56;12.20;99.90
10702;DHT22;5402;50.004;8.246;2023-05-16T07:22:24;12.20;99.90
10702;DHT22;5402;50.004;8.246;2023-05-16T07:24:51;12.20;99.90
10702;DHT22;5402;50.004;8.246;2023-05-16T07:27:21;12.20;99.90
10702;DHT22;5402;50.004;8.246;2023-05-16T07:29:48;12.10;99.90
10702;DHT22;5402;50.004;8.246;2023-05-16T07:32:15;12.10;99.90
10702;DHT22;5402;50.004;8.246;2023-05-16T07:34:42;12.20;99.90
10702;DHT22;5402;50.004;8.246;2023-05-16T07:37:08;12.00;99.90
10702;DHT22;5402;50.004;8.246;2023-05-16T07:39:38;12.00;99.90
10702;DHT22;5402;50.004;8.246;2023-05-16T07:42:06;12.00;99.90
10702;DHT22;5402;50.004;8.246;2023-05-16T07:44:33;12.10;99.90
10702;DHT22;5402;50.004;8.246;2023-05-16T07:47:00;12.00;99.90
10702;DHT22;5402;50.004;8.246;2023-05-16T07:49:26;11.90;99.90
10702;DHT22;5402;50.004;8.246;2023-05-16T07:51:53;11.90;99.90
10702;DHT22;5402;50.004;8.246;2023-05-16T07:54:20;11.80;99.90
10702;DHT22;5402;50.004;8.246;2023-05-16T07:56:48;11.70;99.90
10702;DHT22;5402;50.004;8.246;2023-05-16T07:59:14;11.70;99.90
10702;DHT22;5402;50.004;8.246;2023-05-16T08:01:41;11.70;99.90
10702;DHT22;5402;50.004;8.246;2023-05-16T08:04:08;11.60;99.90
10702;DHT22;5402;50.004;8.246;2023-05-16T08:06:35;11.50;99.90
10702;DHT22;5402;50.004;8.246;2023-05-16T08:09:02;11.50;99.90
10702;DHT22;5402;50.004;8.246;2023-05-16T08:11:29;11.50;99.90
10702;DHT22;5402;50.004;8.246;2023-05-16T08:13:57;11.40;99.90
10702;DHT22;5402;50.004;8.246;2023-05-16T08:16:23;11.30;99.90
10702;DHT22;5402;50.004;8.246;2023-05-16T08:18:50;11.40;99.90
10702;DHT22;5402;50.004;8.246;2023-05-16T08:21:17;11.40;99.90
10702;DHT22;5402;50.004;8.246;2023-05-16T08:23:44;11.50;99.90
10702;DHT22;5402;50.004;8.246;2023-05-16T08:26:12;11.60;99.90
10702;DHT22;5402;50.004;8.246;2023-05-16T08:28:38;11.70;99.90
10702;DHT22;5402;50.004;8.246;2023-05-16T08:31:06;11.70;99.90
10702;DHT22;5402;50.004;8.246;2023-05-16T08:33:33;11.60;99.90
10702;DHT22;5402;50.004;8.246;2023-05-16T08:36:00;11.60;99.90
10702;DHT22;5402;50.004;8.246;2023-05-16T08:38:27;11.60;99.90
10702;DHT22;5402;50.004;8.246;2023-05-16T08:40:53;11.70;99.90
10702;DHT22;5402;50.004;8.246;2023-05-16T08:43:20;11.50;99.90
10702;DHT22;5402;50.004;8.246;2023-05-16T08:45:47;11.40;99.90
10702;DHT22;5402;50.004;8.246;2023-05-16T08:48:16;11.40;99.90
10702;DHT22;5402;50.004;8.246;2023-05-16T08:50:45;11.30;99.90
10702;DHT22;5402;50.004;8.246;2023-05-16T08:53:14;11.40;99.90
10702;DHT22;5402;50.004;8.246;2023-05-16T08:55:43;11.50;99.90
10702;DHT22;5402;50.004;8.246;2023-05-16T08:58:11;11.50;99.90
10702;DHT22;5402;50.004;8.246;2023-05-16T09:00:39;11.60;99.90
10702;DHT22;5402;50.004;8.246;2023-05-16T09:03:06;11.60;99.90
10702;DHT22;5402;50.004;8.246;2023-05-16T09:05:34;11.70;99.90
10702;DHT22;5402;50.004;8.246;2023-05-16T09:08:01;11.60;99.90
10702;DHT22;5402;50.004;8.246;2023-05-16T09:10:28;11.60;99.90
10702;DHT22;5402;50.004;8.246;2023-05-16T09:12:55;11.70;99.90
10702;DHT22;5402;50.004;8.246;2023-05-16T09:15:21;11.70;99.90
10702;DHT22;5402;50.004;8.246;2023-05-16T09:17:48;11.60;99.90
10702;DHT22;5402;50.004;8.246;2023-05-16T09:20:17;11.50;99.90
10702;DHT22;5402;50.004;8.246;2023-05-16T09:22:53;11.50;99.90
10702;DHT22;5402;50.004;8.246;2023-05-16T09:25:21;11.60;99.90
10702;DHT22;5402;50.004;8.246;2023-05-16T09:27:51;11.60;99.90
10702;DHT22;5402;50.004;8.246;2023-05-16T09:30:21;11.70;99.90
10702;DHT22;5402;50.004;8.246;2023-05-16T09:32:50;11.60;99.90
10702;DHT22;5402;50.004;8.246;2023-05-16T09:35:18;11.70;99.90
10702;DHT22;5402;50.004;8.246;2023-05-16T09:37:45;11.60;99.90
10702;DHT22;5402;50.004;8.246;2023-05-16T09:40:14;11.70;99.90
10702;DHT22;5402;50.004;8.246;2023-05-16T09:42:41;11.80;99.90
10702;DHT22;5402;50.004;8.246;2023-05-16T09:45:11;11.70;99.90
10702;DHT22;5402;50.004;8.246;2023-05-16T09:47:39;11.60;99.90
10702;DHT22;5402;50.004;8.246;2023-05-16T09:50:12;11.60;99.90
10702;DHT22;5402;50.004;8.246;2023-05-16T09:52:39;11.50;99.90
10702;DHT22;5402;50.004;8.246;2023-05-16T09:55:06;11.60;99.90
10702;DHT22;5402;50.004;8.246;2023-05-16T09:57:37;11.70;99.90
10702;DHT22;5402;50.004;8.246;2023-05-16T10:00:06;12.00;99.90
10702;DHT22;5402;50.004;8.246;2023-05-16T10:02:36;12.10;99.90
10702;DHT22;5402;50.004;8.246;2023-05-16T10:05:04;12.20;99.90
10702;DHT22;5402;50.004;8.246;2023-05-16T10:07:31;12.20;99.90
10702;DHT22;5402;50.004;8.246;2023-05-16T10:10:00;12.30;99.90
10702;DHT22;5402;50.004;8.246;2023-05-16T10:12:29;12.30;99.90
10702;DHT22;5402;50.004;8.246;2023-05-16T10:14:59;12.40;99.90
10702;DHT22;5402;50.004;8.246;2023-05-16T10:17:27;12.50;99.90
10702;DHT22;5402;50.004;8.246;2023-05-16T10:19:57;12.70;99.90
10702;DHT22;5402;50.004;8.246;2023-05-16T10:22:24;12.40;99.90
10702;DHT22;5402;50.004;8.246;2023-05-16T10:24:59;12.70;99.90
10702;DHT22;5402;50.004;8.246;2023-05-16T10:27:30;12.80;99.90
10702;DHT22;5402;50.004;8.246;2023-05-16T10:29:59;12.90;99.90
10702;DHT22;5402;50.004;8.246;2023-05-16T10:32:26;12.80;99.90
10702;DHT22;5402;50.004;8.246;2023-05-16T10:34:54;12.80;99.90
10702;DHT22;5402;50.004;8.246;2023-05-16T10:37:21;12.80;99.90
10702;DHT22;5402;50.004;8.246;2023-05-16T10:39:49;12.90;99.90
10702;DHT22;5402;50.004;8.246;2023-05-16T10:42:16;12.80;99.90
10702;DHT22;5402;50.004;8.246;2023-05-16T10:44:44;12.80;99.90
10702;DHT22;5402;50.004;8.246;2023-05-16T10:47:17;12.80;99.90
10702;DHT22;5402;50.004;8.246;2023-05-16T10:49:44;12.80;99.90
10702;DHT22;5402;50.004;8.246;2023-05-16T10:52:11;12.80;99.90
10702;DHT22;5402;50.004;8.246;2023-05-16T10:54:41;13.10;99.90
10702;DHT22;5402;50.004;8.246;2023-05-16T10:57:10;13.10;99.90
10702;DHT22;5402;50.004;8.246;2023-05-16T10:59:44;13.00;99.90
10702;DHT22;5402;50.004;8.246;2023-05-16T11:02:30;13.10;99.90
10702;DHT22;5402;50.004;8.246;2023-05-16T11:04:59;13.00;99.90
10702;DHT22;5402;50.004;8.246;2023-05-16T11:07:31;13.00;99.90
10702;DHT22;5402;50.004;8.246;2023-05-16T11:10:03;13.30;99.90
10702;DHT22;5402;50.004;8.246;2023-05-16T11:12:44;13.20;99.90
10702;DHT22;5402;50.004;8.246;2023-05-16T11:15:23;13.30;99.90
10702;DHT22;5402;50.004;8.246;2023-05-16T11:18:03;13.50;99.90
10702;DHT22;5402;50.004;8.246;2023-05-16T11:20:31;13.50;99.90
10702;DHT22;5402;50.004;8.246;2023-05-16T11:23:17;13.80;99.90
10702;DHT22;5402;50.004;8.246;2023-05-16T11:25:45;13.90;99.90
10702;DHT22;5402;50.004;8.246;2023-05-16T11:28:12;14.10;99.90
10702;DHT22;5402;50.004;8.246;2023-05-16T11:30:42;14.30;99.90
10702;DHT22;5402;50.004;8.246;2023-05-16T11:33:10;14.10;99.90
10702;DHT22;5402;50.004;8.246;2023-05-16T11:35:38;14.20;99.90
10702;DHT22;5402;50.004;8.246;2023-05-16T11:38:04;14.40;99.90
10702;DHT22;5402;50.004;8.246;2023-05-16T11:40:32;14.70;99.90
10702;DHT22;5402;50.004;8.246;2023-05-16T11:43:00;14.70;99.90
10702;DHT22;5402;50.004;8.246;2023-05-16T11:45:27;14.90;99.90
10702;DHT22;5402;50.004;8.246;2023-05-16T11:48:01;15.00;99.90
10702;DHT22;5402;50.004;8.246;2023-05-16T11:50:29;14.60;98.90
10702;DHT22;5402;50.004;8.246;2023-05-16T11:52:56;14.80;99.90
10702;DHT22;5402;50.004;8.246;2023-05-16T11:55:24;15.20;99.90
10702;DHT22;5402;50.004;8.246;2023-05-16T11:57:52;15.40;99.10
10702;DHT22;5402;50.004;8.246;2023-05-16T12:00:21;15.70;98.40
10702;DHT22;5402;50.004;8.246;2023-05-16T12:02:51;15.90;98.80
10702;DHT22;5402;50.004;8.246;2023-05-16T12:05:19;15.80;97.20
10702;DHT22;5402;50.004;8.246;2023-05-16T12:07:51;15.90;97.10
10702;DHT22;5402;50.004;8.246;2023-05-16T12:10:20;15.80;97.10
10702;DHT22;5402;50.004;8.246;2023-05-16T12:12:48;15.70;96.80
10702;DHT22;5402;50.004;8.246;2023-05-16T12:15:16;15.70;95.20
10702;DHT22;5402;50.004;8.246;2023-05-16T12:17:43;15.60;95.80
10702;DHT22;5402;50.004;8.246;2023-05-16T12:20:11;15.80;95.90
10702;DHT22;5402;50.004;8.246;2023-05-16T12:22:38;16.00;95.20
10702;DHT22;5402;50.004;8.246;2023-05-16T12:25:25;16.40;94.50
10702;DHT22;5402;50.004;8.246;2023-05-16T12:27:52;16.30;94.30
10702;DHT22;5402;50.004;8.246;2023-05-16T12:30:21;16.50;94.40
10702;DHT22;5402;50.004;8.246;2023-05-16T12:32:52;16.80;93.90
10702;DHT22;5402;50.004;8.246;2023-05-16T12:35:19;17.30;93.80
10702;DHT22;5402;50.004;8.246;2023-05-16T12:37:46;17.30;94.00
10702;DHT22;5402;50.004;8.246;2023-05-16T12:40:12;17.30;93.10
10702;DHT22;5402;50.004;8.246;2023-05-16T12:42:42;17.20;92.80
10702;DHT22;5402;50.004;8.246;2023-05-16T12:45:13;17.10;93.10
10702;DHT22;5402;50.004;8.246;2023-05-16T12:47:41;17.40;92.90
10702;DHT22;5402;50.004;8.246;2023-05-16T12:50:09;17.30;93.00
10702;DHT22;5402;50.004;8.246;2023-05-16T12:52:45;16.90;92.00
10702;DHT22;5402;50.004;8.246;2023-05-16T12:55:13;16.90;92.50
10702;DHT22;5402;50.004;8.246;2023-05-16T12:57:43;16.60;92.20
10702;DHT22;5402;50.004;8.246;2023-05-16T13:00:13;16.80;93.30
10702;DHT22;5402;50.004;8.246;2023-05-16T13:02:40;17.00;93.30
10702;DHT22;5402;50.004;8.246;2023-05-16T13:05:07;16.60;93.00
10702;DHT22;5402;50.004;8.246;2023-05-16T13:07:34;16.40;92.10
10702;DHT22;5402;50.004;8.246;2023-05-16T13:10:02;16.50;92.50
10702;DHT22;5402;50.004;8.246;2023-05-16T13:12:30;16.50;92.40
10702;DHT22;5402;50.004;8.246;2023-05-16T13:14:58;16.30;91.70
10702;DHT22;5402;50.004;8.246;2023-05-16T13:17:25;16.20;92.20
10702;DHT22;5402;50.004;8.246;2023-05-16T13:19:54;16.40;91.70
10702;DHT22;5402;50.004;8.246;2023-05-16T13:22:21;16.50;91.30
10702;DHT22;5402;50.004;8.246;2023-05-16T13:24:48;16.50;90.80
10702;DHT22;5402;50.004;8.246;2023-05-16T13:27:15;16.50;91.00
10702;DHT22;5402;50.004;8.246;2023-05-16T13:29:42;16.70;91.60
10702;DHT22;5402;50.004;8.246;2023-05-16T13:32:10;16.60;91.90
10702;DHT22;5402;50.004;8.246;2023-05-16T13:34:37;16.60;91.70
10702;DHT22;5402;50.004;8.246;2023-05-16T13:37:03;16.70;92.00
10702;DHT22;5402;50.004;8.246;2023-05-16T13:39:30;16.70;91.90
10702;DHT22;5402;50.004;8.246;2023-05-16T13:41:57;16.50;91.50
10702;DHT22;5402;50.004;8.246;2023-05-16T13:44:24;16.60;91.80
10702;DHT22;5402;50.004;8.246;2023-05-16T13:46:51;16.70;91.50
10702;DHT22;5402;50.004;8.246;2023-05-16T13:49:19;16.80;92.00
10702;DHT22;5402;50.004;8.246;2023-05-16T13:51:46;16.90;91.30
10702;DHT22;5402;50.004;8.246;2023-05-16T13:54:13;16.80;91.70
10702;DHT22;5402;50.004;8.246;2023-05-16T13:56:40;16.70;91.30
10702;DHT22;5402;50.004;8.246;2023-05-16T13:59:07;16.50;91.80
10702;DHT22;5402;50.004;8.246;2023-05-16T14:01:34;16.50;91.40
10702;DHT22;5402;50.004;8.246;2023-05-16T14:04:00;16.70;90.40
10702;DHT22;5402;50.004;8.246;2023-05-16T14:06:29;16.60;91.30
10702;DHT22;5402;50.004;8.246;2023-05-16T14:08:55;16.40;91.70
10702;DHT22;5402;50.004;8.246;2023-05-16T14:11:22;16.00;91.10
10702;DHT22;5402;50.004;8.246;2023-05-16T14:13:51;16.20;91.00
10702;DHT22;5402;50.004;8.246;2023-05-16T14:16:18;16.40;91.20
10702;DHT22;5402;50.004;8.246;2023-05-16T14:18:45;16.60;91.20
10702;DHT22;5402;50.004;8.246;2023-05-16T14:21:11;16.80;91.00
10702;DHT22;5402;50.004;8.246;2023-05-16T14:23:40;16.70;91.10
10702;DHT22;5402;50.004;8.246;2023-05-16T14:26:07;16.60;89.50
10702;DHT22;5402;50.004;8.246;2023-05-16T14:28:33;16.60;89.70
10702;DHT22;5402;50.004;8.246;2023-05-16T14:31:01;16.40;90.30
10702;DHT22;5402;50.004;8.246;2023-05-16T14:33:27;16.30;90.60
10702;DHT22;5402;50.004;8.246;2023-05-16T14:35:55;16.50;90.60
10702;DHT22;5402;50.004;8.246;2023-05-16T14:38:22;16.60;91.20
10702;DHT22;5402;50.004;8.246;2023-05-16T14:40:50;16.40;91.40
10702;DHT22;5402;50.004;8.246;2023-05-16T14:43:16;16.30;91.90
10702;DHT22;5402;50.004;8.246;2023-05-16T14:45:43;16.10;90.80
10702;DHT22;5402;50.004;8.246;2023-05-16T14:48:10;16.10;90.60
10702;DHT22;5402;50.004;8.246;2023-05-16T14:50:37;16.30;90.20
10702;DHT22;5402;50.004;8.246;2023-05-16T14:53:03;16.70;90.50
10702;DHT22;5402;50.004;8.246;2023-05-16T14:55:30;16.80;89.90
10702;DHT22;5402;50.004;8.246;2023-05-16T14:57:58;16.90;90.30
10702;DHT22;5402;50.004;8.246;2023-05-16T15:00:26;16.60;90.40
10702;DHT22;5402;50.004;8.246;2023-05-16T15:02:52;16.60;90.30
10702;DHT22;5402;50.004;8.246;2023-05-16T15:05:19;16.40;90.90
10702;DHT22;5402;50.004;8.246;2023-05-16T15:07:45;16.40;91.10
10702;DHT22;5402;50.004;8.246;2023-05-16T15:10:12;16.10;90.30
10702;DHT22;5402;50.004;8.246;2023-05-16T15:12:39;16.10;89.80
10702;DHT22;5402;50.004;8.246;2023-05-16T15:15:10;15.90;89.40
10702;DHT22;5402;50.004;8.246;2023-05-16T15:17:37;16.00;90.30
10702;DHT22;5402;50.004;8.246;2023-05-16T15:20:05;16.20;90.10
10702;DHT22;5402;50.004;8.246;2023-05-16T15:22:32;16.50;89.80
10702;DHT22;5402;50.004;8.246;2023-05-16T15:24:59;16.70;89.00
10702;DHT22;5402;50.004;8.246;2023-05-16T15:27:26;16.90;87.90
10702;DHT22;5402;50.004;8.246;2023-05-16T15:29:53;16.80;88.90
10702;DHT22;5402;50.004;8.246;2023-05-16T15:32:24;16.70;86.70
10702;DHT22;5402;50.004;8.246;2023-05-16T15:34:51;16.50;87.40
10702;DHT22;5402;50.004;8.246;2023-05-16T15:37:18;16.40;87.60
10702;DHT22;5402;50.004;8.246;2023-05-16T15:39:44;16.50;86.50
10702;DHT22;5402;50.004;8.246;2023-05-16T15:42:11;16.50;85.60
10702;DHT22;5402;50.004;8.246;2023-05-16T15:44:38;16.50;85.90
10702;DHT22;5402;50.004;8.246;2023-05-16T15:47:06;16.40;86.20
10702;DHT22;5402;50.004;8.246;2023-05-16T15:49:34;16.30;87.10